Time;durP1;ratioP1;P1;durP2;ratioP2;P2;SDS_P1;SDS_P2;PMS_P1;PMS_P2;Temp;Humidity;BMP_temperature;BMP_pressure;BME280_temperature;BME280_humidity;BME280_pressure;Samples;Min_cycle;Max_cycle;Signal;HPM_P1;HPM_P2
2024/02/01 00:01:34;;;;;;;14.95;8.90;;;7.20;99.90;;;;;;5072436;28;20043;-73
2024/02/01 00:04:00;;;;;;;16.88;10.77;;;7.30;99.90;;;;;;5072423;28;20040;-72
2024/02/01 00:06:25;;;;;;;14.57;8.98;;;7.30;99.90;;;;;;5072360;28;20067;-74
2024/02/01 00:08:51;;;;;;;18.98;9.35;;;7.30;99.90;;;;;;5072447;28;20036;-73
2024/02/01 00:11:17;;;;;;;19.65;10.25;;;7.40;99.90;;;;;;5072316;28;20036;-73
2024/02/01 00:13:42;;;;;;;19.35;9.40;;;7.50;99.90;;;;;;5054624;28;20123;-73
2024/02/01 00:16:08;;;;;;;16.33;8.50;;;7.30;99.90;;;;;;5072105;28;20392;-73
2024/02/01 00:18:34;;;;;;;14.02;9.43;;;7.60;99.90;;;;;;5071480;28;20051;-74
2024/02/01 00:20:59;;;;;;;21.13;9.30;;;7.40;99.90;;;;;;5071645;28;20047;-73
2024/02/01 00:23:25;;;;;;;18.77;9.05;;;7.40;99.90;;;;;;5072383;28;20064;-73
2024/02/01 00:25:50;;;;;;;20.13;9.80;;;7.60;99.90;;;;;;5072104;28;20523;-73
2024/02/01 00:28:16;;;;;;;16.52;9.40;;;7.40;99.90;;;;;;5071878;28;20139;-73
2024/02/01 00:30:42;;;;;;;25.92;10.13;;;7.50;99.90;;;;;;5071923;28;20047;-72
2024/02/01 00:33:07;;;;;;;17.30;9.52;;;7.50;99.90;;;;;;5072025;28;20098;-73
2024/02/01 00:35:33;;;;;;;17.48;10.13;;;7.80;99.90;;;;;;5071697;28;20040;-73
2024/02/01 00:37:58;;;;;;;19.60;9.95;;;7.60;99.90;;;;;;5053941;28;20040;-73
2024/02/01 00:40:24;;;;;;;17.70;9.35;;;7.70;99.90;;;;;;5071866;28;20058;-72
2024/02/01 00:42:49;;;;;;;17.42;9.55;;;7.80;99.90;;;;;;5070849;28;20036;-73
2024/02/01 00:45:16;;;;;;;14.25;8.27;;;7.60;99.90;;;;;;5071816;28;20567;-73
2024/02/01 00:47:41;;;;;;;17.65;8.27;;;7.70;99.90;;;;;;5071739;28;20094;-73
2024/02/01 00:50:07;;;;;;;19.20;8.07;;;7.80;99.90;;;;;;5071332;28;20033;-73
2024/02/01 00:52:33;;;;;;;16.17;7.68;;;8.00;99.90;;;;;;5063432;28;20063;-73
2024/02/01 00:54:58;;;;;;;15.60;7.82;;;8.00;99.90;;;;;;5071734;28;20044;-73
2024/02/01 00:57:24;;;;;;;14.52;6.85;;;8.20;99.90;;;;;;5071463;28;20047;-73
2024/02/01 00:59:49;;;;;;;19.98;7.22;;;8.00;99.90;;;;;;5071590;28;20073;-72
2024/02/01 01:02:15;;;;;;;17.85;6.55;;;8.20;99.90;;;;;;5071629;28;20032;-72
2024/02/01 01:04:41;;;;;;;22.55;7.28;;;8.30;99.90;;;;;;5071428;28;20111;-72
2024/02/01 01:07:06;;;;;;;22.40;7.72;;;8.20;99.90;;;;;;5071644;28;20035;-71
2024/02/01 01:09:32;;;;;;;19.77;6.88;;;8.10;99.90;;;;;;5071572;28;20039;-72
2024/02/01 01:11:57;;;;;;;14.45;5.88;;;8.20;99.90;;;;;;5071775;28;20051;-71
2024/02/01 01:14:23;;;;;;;19.35;5.88;;;8.30;99.90;;;;;;5071437;28;20072;-72
2024/02/01 01:16:49;;;;;;;16.48;6.68;;;8.40;99.90;;;;;;5071485;28;20040;-73
2024/02/01 01:19:14;;;;;;;21.40;6.75;;;8.30;99.90;;;;;;5071148;28;20033;-71
2024/02/01 01:21:40;;;;;;;15.82;5.72;;;8.30;99.90;;;;;;5071600;28;20032;-71
2024/02/01 01:24:05;;;;;;;17.90;6.00;;;8.30;99.90;;;;;;5071323;28;20086;-72
2024/02/01 01:26:31;;;;;;;26.20;6.70;;;8.30;99.90;;;;;;5071491;28;20033;-72
2024/02/01 01:28:56;;;;;;;18.95;5.47;;;8.50;99.90;;;;;;5071246;28;20109;-72
2024/02/01 01:31:22;;;;;;;20.77;5.63;;;8.40;99.90;;;;;;5074070;28;20045;-72
2024/02/01 01:33:48;;;;;;;26.70;6.95;;;8.30;99.90;;;;;;5075221;28;20044;-72
2024/02/01 01:36:13;;;;;;;28.65;6.35;;;8.40;99.90;;;;;;5075146;28;20415;-71
2024/02/01 01:38:39;;;;;;;22.08;6.25;;;8.20;99.90;;;;;;5075288;28;20119;-72
2024/02/01 01:41:04;;;;;;;30.45;5.75;;;8.10;99.90;;;;;;5075001;28;20051;-71
2024/02/01 01:43:30;;;;;;;19.00;4.88;;;8.10;99.90;;;;;;5075346;28;20036;-72
2024/02/01 01:46:05;;;;;;;21.13;5.35;;;8.20;99.90;;;;;;5075109;28;20037;-71
2024/02/01 01:48:33;;;;;;;25.30;5.65;;;8.00;99.90;;;;;;5074955;28;20048;-71
2024/02/01 01:50:59;;;;;;;31.42;4.93;;;8.10;99.90;;;;;;5074773;28;20521;-71
2024/02/01 01:53:30;;;;;;;20.58;3.97;;;8.00;99.90;;;;;;5075140;28;20036;-71
2024/02/01 01:55:57;;;;;;;24.23;5.35;;;7.90;99.90;;;;;;5074899;28;20044;-71
2024/02/01 01:58:27;;;;;;;21.85;4.25;;;7.80;99.90;;;;;;5074728;28;20055;-71
2024/02/01 02:00:54;;;;;;;21.92;5.45;;;7.80;99.90;;;;;;5074567;28;20531;-71
2024/02/01 02:03:27;;;;;;;16.55;4.25;;;7.80;99.90;;;;;;5074713;28;20496;-71
2024/02/01 02:05:54;;;;;;;22.30;5.73;;;7.60;99.90;;;;;;5074823;28;20068;-72
2024/02/01 02:08:21;;;;;;;24.75;4.07;;;7.70;99.90;;;;;;5074719;28;20036;-72
2024/02/01 02:10:47;;;;;;;21.27;4.22;;;7.50;99.90;;;;;;5074511;28;20079;-71
2024/02/01 02:13:13;;;;;;;17.45;4.22;;;7.50;99.90;;;;;;5074662;28;20047;-71
2024/02/01 02:15:38;;;;;;;25.75;6.00;;;7.50;99.90;;;;;;5074244;28;20073;-71
2024/02/01 02:18:09;;;;;;;26.27;4.55;;;7.30;99.90;;;;;;5074538;28;20040;-72
2024/02/01 02:20:40;;;;;;;24.65;5.30;;;7.20;99.90;;;;;;5056480;28;20040;-71
2024/02/01 02:23:07;;;;;;;23.42;4.15;;;7.30;99.90;;;;;;5074534;28;20041;-72
2024/02/01 02:25:33;;;;;;;26.95;5.18;;;7.10;99.90;;;;;;5056509;28;20040;-71
2024/02/01 02:27:59;;;;;;;21.40;3.88;;;7.10;99.90;;;;;;5074124;28;20040;-72
2024/02/01 02:30:24;;;;;;;29.05;3.90;;;7.20;99.90;;;;;;5074274;28;20041;-72
2024/02/01 02:32:50;;;;;;;19.10;4.15;;;7.20;99.90;;;;;;5074416;28;20120;-71
2024/02/01 02:35:16;;;;;;;23.85;4.43;;;7.10;99.90;;;;;;5074151;28;20047;-71
2024/02/01 02:37:46;;;;;;;19.35;3.70;;;7.00;99.90;;;;;;5074118;28;20037;-71
2024/02/01 02:40:17;;;;;;;19.63;3.78;;;6.90;99.90;;;;;;5056261;28;20037;-71
2024/02/01 02:42:42;;;;;;;22.02;5.95;;;6.80;99.90;;;;;;5073169;28;20036;-72
2024/02/01 02:45:09;;;;;;;21.90;4.20;;;6.90;99.90;;;;;;5074124;28;20036;-71
2024/02/01 02:47:35;;;;;;;20.98;4.38;;;6.80;99.90;;;;;;5073884;28;20041;-71
2024/02/01 02:50:01;;;;;;;35.58;5.70;;;6.90;99.90;;;;;;5073747;28;20055;-71
2024/02/01 02:52:27;;;;;;;25.48;5.57;;;6.70;99.90;;;;;;5073861;28;20068;-72
2024/02/01 02:54:52;;;;;;;27.52;5.18;;;6.70;99.90;;;;;;5055885;28;20033;-72
2024/02/01 02:57:18;;;;;;;20.42;4.32;;;6.60;99.90;;;;;;5073721;28;20042;-71
2024/02/01 02:59:44;;;;;;;19.33;4.43;;;6.70;99.90;;;;;;5073958;28;20504;-71
2024/02/01 03:02:10;;;;;;;32.00;4.68;;;6.70;99.90;;;;;;5074279;28;20076;-71
2024/02/01 03:04:36;;;;;;;20.35;4.20;;;6.60;99.90;;;;;;5074053;28;20451;-72
2024/02/01 03:07:01;;;;;;;15.70;4.63;;;6.50;99.90;;;;;;5055990;28;20039;-72
2024/02/01 03:09:27;;;;;;;20.25;3.83;;;6.60;99.90;;;;;;5073394;28;20113;-71
2024/02/01 03:11:53;;;;;;;25.83;4.20;;;6.50;99.90;;;;;;5073539;28;20177;-71
2024/02/01 03:14:19;;;;;;;24.30;4.10;;;6.30;99.90;;;;;;5073599;28;20093;-72
2024/02/01 03:16:46;;;;;;;21.33;4.40;;;6.50;99.90;;;;;;5073637;28;20037;-72
2024/02/01 03:19:12;;;;;;;25.30;4.68;;;6.30;99.90;;;;;;5073203;28;20121;-71
2024/02/01 03:21:38;;;;;;;17.55;3.70;;;6.20;99.90;;;;;;5073337;28;20490;-71
2024/02/01 03:24:04;;;;;;;20.52;4.47;;;6.20;99.90;;;;;;5073308;28;20116;-71
2024/02/01 03:26:37;;;;;;;26.30;4.50;;;6.30;99.90;;;;;;5073099;28;20381;-71
2024/02/01 03:29:05;;;;;;;25.88;4.85;;;6.30;99.90;;;;;;5072054;28;20055;-71
2024/02/01 03:31:34;;;;;;;18.85;3.30;;;6.00;99.90;;;;;;5073288;28;20505;-72
2024/02/01 03:34:10;;;;;;;22.75;4.30;;;6.20;99.90;;;;;;5072948;28;20484;-71
2024/02/01 03:36:38;;;;;;;19.83;3.95;;;6.10;99.90;;;;;;5055222;28;20032;-71
2024/02/01 03:39:23;;;;;;;23.55;5.10;;;6.10;99.90;;;;;;5054754;28;20063;-71
2024/02/01 03:41:50;;;;;;;22.63;5.07;;;5.90;99.90;;;;;;5073147;28;20029;-71
2024/02/01 03:44:16;;;;;;;25.42;4.70;;;6.00;99.90;;;;;;5055064;28;20033;-71
2024/02/01 03:46:42;;;;;;;19.40;4.18;;;5.80;99.90;;;;;;5072854;28;20107;-71
2024/02/01 03:49:08;;;;;;;23.05;4.50;;;6.10;99.90;;;;;;5054580;28;20040;-71
2024/02/01 03:51:36;;;;;;;29.48;5.20;;;6.00;99.90;;;;;;5054813;28;20043;-71
2024/02/01 03:54:05;;;;;;;27.38;4.70;;;6.00;99.90;;;;;;5072584;28;20482;-71
2024/02/01 03:56:35;;;;;;;24.65;4.45;;;5.90;99.90;;;;;;5055009;28;20036;-71
2024/02/01 03:59:02;;;;;;;21.58;4.85;;;5.80;99.90;;;;;;5072377;28;20124;-71
2024/02/01 04:01:29;;;;;;;24.92;6.10;;;5.90;99.90;;;;;;5072691;28;20060;-71
2024/02/01 04:03:55;;;;;;;23.50;5.75;;;5.70;99.90;;;;;;5072469;28;20036;-71
2024/02/01 04:06:22;;;;;;;21.98;5.05;;;5.80;99.90;;;;;;5072704;28;20111;-71
2024/02/01 04:08:48;;;;;;;28.92;4.32;;;5.70;99.90;;;;;;5072454;28;20037;-72
2024/02/01 04:11:13;;;;;;;21.02;5.03;;;5.60;99.90;;;;;;5072304;28;20080;-72
2024/02/01 04:13:40;;;;;;;21.13;4.80;;;5.70;99.90;;;;;;5072374;28;20042;-71
2024/02/01 04:16:06;;;;;;;18.65;3.60;;;5.70;99.90;;;;;;5079205;22;20477;-73
2024/02/01 04:18:32;;;;;;;23.90;4.68;;;5.70;99.90;;;;;;5033872;28;20045;-73
2024/02/01 04:20:58;;;;;;;21.02;4.40;;;5.60;99.90;;;;;;5052122;28;20036;-73
2024/02/01 04:23:24;;;;;;;22.95;4.82;;;5.50;99.90;;;;;;5033665;28;20091;-72
2024/02/01 04:25:50;;;;;;;22.67;3.72;;;5.50;99.90;;;;;;5034313;28;20033;-72
2024/02/01 04:28:18;;;;;;;30.73;4.82;;;5.70;99.90;;;;;;5034097;28;20511;-73
2024/02/01 04:30:50;;;;;;;22.70;5.20;;;5.60;99.90;;;;;;5033895;28;20052;-72
2024/02/01 04:33:18;;;;;;;26.20;5.43;;;5.50;99.90;;;;;;5034264;28;20063;-73
2024/02/01 04:35:44;;;;;;;23.50;7.65;;;5.60;99.90;;;;;;5034052;28;20089;-73
2024/02/01 04:38:10;;;;;;;16.92;3.42;;;5.40;99.90;;;;;;5034013;28;20450;-73
2024/02/01 04:40:35;;;;;;;29.08;5.43;;;5.50;99.90;;;;;;5051696;28;20041;-73
2024/02/01 04:43:02;;;;;;;31.38;6.57;;;5.30;99.90;;;;;;5051986;28;20163;-73
2024/02/01 04:45:28;;;;;;;24.02;4.68;;;5.30;99.90;;;;;;5033681;28;20033;-73
2024/02/01 04:47:54;;;;;;;20.70;4.40;;;5.50;99.90;;;;;;5034144;28;20045;-73
2024/02/01 04:50:20;;;;;;;24.10;4.28;;;5.20;99.90;;;;;;5033859;28;20047;-72
2024/02/01 04:52:46;;;;;;;28.08;6.88;;;5.30;99.90;;;;;;5033969;28;20432;-73
2024/02/01 04:55:12;;;;;;;26.05;5.18;;;5.40;99.90;;;;;;5051789;28;20045;-72
2024/02/01 04:57:38;;;;;;;23.42;5.55;;;5.30;99.90;;;;;;5033786;28;20051;-73
2024/02/01 05:00:13;;;;;;;24.83;4.82;;;5.20;99.90;;;;;;5033627;28;20037;-72
2024/02/01 05:02:40;;;;;;;27.77;6.40;;;5.30;99.90;;;;;;5034006;28;20048;-73
2024/02/01 05:05:07;;;;;;;21.73;4.60;;;5.20;99.90;;;;;;5051155;28;20095;-72
2024/02/01 05:07:33;;;;;;;26.25;6.13;;;5.10;99.90;;;;;;5051423;28;20550;-73
2024/02/01 05:09:58;;;;;;;24.83;5.40;;;5.10;99.90;;;;;;5033711;28;20408;-73
2024/02/01 05:12:24;;;;;;;20.80;3.95;;;5.10;99.90;;;;;;5033641;28;20036;-73
2024/02/01 05:14:50;;;;;;;24.65;4.20;;;5.20;99.90;;;;;;5033098;28;20036;-73
2024/02/01 05:17:15;;;;;;;23.58;4.00;;;5.20;99.90;;;;;;5051624;28;20108;-73
2024/02/01 05:19:41;;;;;;;22.98;5.25;;;5.30;99.90;;;;;;5051140;28;20511;-72
2024/02/01 05:22:07;;;;;;;30.33;6.28;;;5.20;99.90;;;;;;5033495;28;20120;-72
2024/02/01 05:24:33;;;;;;;26.02;5.25;;;5.00;99.90;;;;;;5016943;28;20035;-72
2024/02/01 05:26:59;;;;;;;27.75;5.00;;;5.00;99.90;;;;;;5033399;28;20056;-73
2024/02/01 05:29:25;;;;;;;20.45;5.22;;;5.10;99.90;;;;;;5033146;28;20040;-73
2024/02/01 05:31:55;;;;;;;22.77;4.72;;;5.10;99.90;;;;;;5033375;28;20048;-72
2024/02/01 05:34:22;;;;;;;25.33;4.60;;;5.00;99.90;;;;;;5051328;28;20051;-72
2024/02/01 05:36:52;;;;;;;28.92;5.50;;;4.90;99.90;;;;;;5051336;28;20083;-72
2024/02/01 05:39:25;;;;;;;23.23;5.57;;;5.10;99.90;;;;;;5032921;28;20041;-72
2024/02/01 05:41:57;;;;;;;18.58;4.65;;;5.00;99.90;;;;;;5033039;28;20052;-73
2024/02/01 05:44:26;;;;;;;27.02;3.33;;;5.00;99.90;;;;;;5033393;28;20063;-73
2024/02/01 05:46:53;;;;;;;35.33;6.70;;;5.00;99.90;;;;;;5050020;28;20493;-72
2024/02/01 05:49:23;;;;;;;24.60;4.78;;;5.10;99.90;;;;;;5050463;28;20055;-72
2024/02/01 05:51:50;;;;;;;20.73;4.53;;;4.80;99.90;;;;;;5050732;28;20118;-72
2024/02/01 05:54:21;;;;;;;29.42;5.97;;;4.90;99.90;;;;;;5050863;28;20045;-73
2024/02/01 05:56:47;;;;;;;28.48;5.38;;;5.00;99.90;;;;;;5016960;28;20037;-72
2024/02/01 05:59:15;;;;;;;23.65;4.45;;;4.90;99.90;;;;;;5032816;28;20047;-72
2024/02/01 06:01:42;;;;;;;32.53;7.20;;;5.00;99.90;;;;;;5051010;28;20029;-72
2024/02/01 06:04:11;;;;;;;23.98;5.90;;;4.90;99.90;;;;;;5050926;28;20041;-72
2024/02/01 06:06:44;;;;;;;26.35;5.55;;;4.90;99.90;;;;;;5050877;28;20037;-72
2024/02/01 06:09:13;;;;;;;24.13;4.72;;;4.90;99.90;;;;;;5032979;28;20049;-73
2024/02/01 06:11:40;;;;;;;22.42;5.28;;;5.00;99.90;;;;;;5033093;28;20081;-72
2024/02/01 06:14:06;;;;;;;22.83;5.72;;;4.90;99.90;;;;;;5050869;28;20120;-72
2024/02/01 06:16:31;;;;;;;28.67;5.53;;;4.80;99.90;;;;;;5032756;28;20557;-72
2024/02/01 06:18:57;;;;;;;21.25;4.78;;;4.90;99.90;;;;;;5054006;28;20076;-72
2024/02/01 06:21:23;;;;;;;18.98;4.35;;;4.80;99.90;;;;;;5036661;28;20394;-72
2024/02/01 06:23:49;;;;;;;24.27;4.80;;;4.70;99.90;;;;;;5054659;28;20488;-72
2024/02/01 06:26:27;;;;;;;29.33;6.70;;;4.70;99.90;;;;;;5054221;28;20043;-72
2024/02/01 06:29:00;;;;;;;22.35;5.05;;;4.80;99.90;;;;;;5054308;28;20040;-72
2024/02/01 06:31:26;;;;;;;30.02;4.78;;;4.70;99.90;;;;;;5036213;28;20041;-72
2024/02/01 06:33:53;;;;;;;25.20;5.78;;;4.90;99.90;;;;;;5036173;28;20123;-72
2024/02/01 06:36:19;;;;;;;28.55;6.00;;;4.90;99.90;;;;;;5053797;28;20493;-72
2024/02/01 06:39:10;;;;;;;26.33;5.40;;;4.70;99.90;;;;;;5035997;28;20037;-73
2024/02/01 06:42:02;;;;;;;26.80;4.78;;;4.70;99.90;;;;;;5035485;28;20069;-73
2024/02/01 06:44:28;;;;;;;24.60;5.50;;;4.90;99.90;;;;;;5035555;28;20040;-73
2024/02/01 06:52:24;;;;;;;25.13;4.20;;;4.90;99.90;;;;;;5035859;28;20083;-73
2024/02/01 07:16:35;;;;;;;31.23;6.65;;;4.80;99.90;;;;;;5052977;28;20056;-72
2024/02/01 07:19:23;;;;;;;24.75;4.28;;;4.80;99.90;;;;;;5053146;28;20068;-72
2024/02/01 07:24:59;;;;;;;28.58;5.05;;;4.70;99.90;;;;;;5035453;28;20405;-73
2024/02/01 07:57:36;;;;;;;19.45;3.88;;;4.40;99.90;;;;;;5052591;28;20041;-72
2024/02/01 08:00:02;;;;;;;22.40;4.47;;;4.50;99.90;;;;;;5052596;28;20037;-72
2024/02/01 08:07:57;;;;;;;21.40;4.20;;;4.50;99.90;;;;;;5052578;28;20132;-73
2024/02/01 08:10:24;;;;;;;33.65;5.00;;;4.60;99.90;;;;;;5052683;28;20047;-74
2024/02/01 08:12:50;;;;;;;38.83;4.82;;;4.70;99.90;;;;;;5034542;28;20044;-73
2024/02/01 08:15:19;;;;;;;42.95;8.68;;;4.80;99.90;;;;;;5052063;28;20459;-73
2024/02/01 08:17:53;;;;;;;25.63;4.43;;;4.90;99.90;;;;;;5052151;28;20048;-73
2024/02/01 08:20:21;;;;;;;27.08;5.88;;;4.90;99.90;;;;;;5051976;28;20043;-73
2024/02/01 08:22:47;;;;;;;29.52;5.35;;;5.10;99.90;;;;;;5052183;28;20509;-73
2024/02/01 08:25:14;;;;;;;29.67;5.28;;;5.30;99.90;;;;;;5033957;28;20546;-73
2024/02/01 08:27:52;;;;;;;21.67;5.13;;;5.20;99.90;;;;;;5052052;28;20056;-73
2024/02/01 08:30:19;;;;;;;31.52;6.50;;;5.40;99.90;;;;;;5034118;28;20125;-73
2024/02/01 08:32:47;;;;;;;30.73;6.82;;;5.40;99.90;;;;;;5052418;28;20480;-73
2024/02/01 08:35:13;;;;;;;27.35;5.20;;;5.60;99.90;;;;;;5033957;28;20044;-73
2024/02/01 08:37:42;;;;;;;23.45;4.78;;;5.50;99.90;;;;;;5033805;28;20052;-73
2024/02/01 08:40:20;;;;;;;37.85;5.25;;;5.50;99.90;;;;;;5033087;28;20037;-73
2024/02/01 08:42:47;;;;;;;29.42;6.68;;;5.60;99.90;;;;;;5034278;28;20432;-75
2024/02/01 08:45:13;;;;;;;29.42;5.50;;;5.60;99.90;;;;;;5051591;28;20045;-73
2024/02/01 08:47:40;;;;;;;30.52;6.38;;;5.60;99.90;;;;;;5051650;28;20045;-75
2024/02/01 08:50:09;;;;;;;37.92;6.05;;;5.80;99.90;;;;;;5051293;28;20045;-73
2024/02/01 08:52:45;;;;;;;22.00;5.22;;;5.70;99.90;;;;;;5047679;28;20508;-73
2024/02/01 08:55:13;;;;;;;24.55;5.90;;;5.90;99.90;;;;;;5050941;28;20075;-73
2024/02/01 08:57:44;;;;;;;21.95;4.32;;;5.90;99.90;;;;;;5033267;28;20059;-73
2024/02/01 09:00:29;;;;;;;28.48;5.55;;;5.90;99.90;;;;;;5033465;28;20033;-73
2024/02/01 09:03:03;;;;;;;24.83;6.32;;;5.70;99.90;;;;;;5051848;28;20045;-73
2024/02/01 09:05:49;;;;;;;30.55;5.28;;;5.70;99.90;;;;;;5033640;28;20044;-74
2024/02/01 09:08:16;;;;;;;27.50;6.00;;;5.80;99.90;;;;;;5051652;28;20037;-74
2024/02/01 09:10:50;;;;;;;29.08;7.00;;;5.70;99.90;;;;;;5033764;28;20164;-73
2024/02/01 09:13:20;;;;;;;33.22;7.03;;;5.80;99.90;;;;;;5051454;28;20033;-73
2024/02/01 09:15:49;;;;;;;25.58;6.10;;;5.90;99.90;;;;;;5050863;28;20504;-73
2024/02/01 09:18:17;;;;;;;23.45;5.03;;;5.80;99.90;;;;;;5048206;28;20131;-73
2024/02/01 09:20:44;;;;;;;29.65;6.60;;;5.80;99.90;;;;;;5028661;28;20550;-73
2024/02/01 09:23:11;;;;;;;32.13;5.50;;;5.80;99.90;;;;;;5030237;28;20037;-74
2024/02/01 09:25:37;;;;;;;23.83;5.05;;;6.00;99.90;;;;;;5041347;28;20488;-74
2024/02/01 09:28:11;;;;;;;19.88;5.30;;;6.00;99.90;;;;;;5067484;28;20036;-74
2024/02/01 09:30:38;;;;;;;33.58;6.07;;;6.10;99.90;;;;;;5053941;28;20477;-74
2024/02/01 09:33:04;;;;;;;39.75;8.23;;;6.00;99.90;;;;;;5053350;28;20048;-74
2024/02/01 09:35:30;;;;;;;25.58;4.72;;;6.10;99.90;;;;;;5071506;28;20097;-73
2024/02/01 09:37:56;;;;;;;28.60;6.75;;;6.10;99.90;;;;;;5071350;28;20037;-73
2024/02/01 09:40:22;;;;;;;25.60;6.38;;;6.10;99.90;;;;;;5053077;28;20044;-74
2024/02/01 09:42:50;;;;;;;48.83;7.63;;;6.20;99.90;;;;;;5071215;28;20510;-73
2024/02/01 09:45:18;;;;;;;27.80;6.53;;;6.30;99.90;;;;;;5053418;28;20033;-74
2024/02/01 09:47:46;;;;;;;23.75;4.63;;;6.30;99.90;;;;;;5053091;28;20052;-74
2024/02/01 09:50:13;;;;;;;33.88;5.15;;;6.30;99.90;;;;;;5036449;28;20119;-74
2024/02/01 09:52:44;;;;;;;25.98;5.10;;;6.30;99.90;;;;;;5056495;28;20443;-74
2024/02/01 09:55:16;;;;;;;31.77;6.22;;;6.40;99.90;;;;;;5074925;28;20043;-75
2024/02/01 09:57:44;;;;;;;29.35;5.70;;;6.40;99.90;;;;;;5056843;28;20076;-74
2024/02/01 10:00:14;;;;;;;31.02;6.97;;;6.50;99.90;;;;;;5056564;28;20036;-74
2024/02/01 10:02:42;;;;;;;34.42;9.38;;;6.60;99.90;;;;;;5056803;28;20079;-74
2024/02/01 10:05:09;;;;;;;26.00;5.70;;;6.70;99.90;;;;;;5056806;28;20040;-74
2024/02/01 10:07:35;;;;;;;27.58;5.35;;;6.60;99.90;;;;;;5056567;28;20041;-74
2024/02/01 10:10:03;;;;;;;27.48;5.10;;;6.70;99.90;;;;;;5036287;28;20040;-73
2024/02/01 10:12:29;;;;;;;31.90;6.85;;;6.70;99.90;;;;;;5036604;28;20473;-73
2024/02/01 10:14:55;;;;;;;24.85;5.80;;;6.70;99.90;;;;;;5036458;28;20041;-73
2024/02/01 10:17:21;;;;;;;27.65;5.65;;;6.80;99.90;;;;;;5054645;28;20037;-74
2024/02/01 10:19:49;;;;;;;31.83;6.03;;;6.90;99.90;;;;;;5054487;28;20559;-72
2024/02/01 10:22:15;;;;;;;29.25;4.95;;;6.90;99.90;;;;;;5054472;28;20045;-73
2024/02/01 10:24:45;;;;;;;38.33;6.50;;;6.90;99.90;;;;;;5054267;28;20039;-75
2024/02/01 10:27:19;;;;;;;33.95;5.90;;;6.90;99.90;;;;;;5053797;28;20124;-73
2024/02/01 10:29:46;;;;;;;33.10;5.43;;;6.90;99.90;;;;;;5036079;28;20062;-73
2024/02/01 10:32:13;;;;;;;26.05;5.90;;;7.10;99.90;;;;;;5035973;28;20048;-73
2024/02/01 10:34:49;;;;;;;30.10;7.65;;;7.10;99.90;;;;;;5053592;28;20092;-73
2024/02/01 10:37:17;;;;;;;35.10;4.45;;;7.10;99.90;;;;;;5052036;28;20044;-73
2024/02/01 10:40:07;;;;;;;23.23;4.63;;;7.20;99.90;;;;;;5053800;28;20063;-75
2024/02/01 10:42:33;;;;;;;25.17;6.90;;;7.20;99.90;;;;;;5036156;28;20037;-75
2024/02/01 10:45:09;;;;;;;30.35;5.63;;;7.20;99.90;;;;;;5036092;28;20087;-75
2024/02/01 10:47:42;;;;;;;35.17;7.53;;;7.30;99.90;;;;;;5036312;28;20041;-73
2024/02/01 10:50:09;;;;;;;;;;;7.40;99.90;;;;;;5054071;28;20037;-73
2024/02/01 10:52:36;;;;;;;18.50;4.72;;;7.40;99.90;;;;;;5053822;28;19920;-73
2024/02/01 10:55:09;;;;;;;25.65;6.13;;;7.50;99.90;;;;;;5019120;28;20357;-75
2024/02/01 10:57:37;;;;;;;24.27;5.60;;;7.70;99.90;;;;;;5053874;28;20048;-75
2024/02/01 11:00:04;;;;;;;31.85;5.57;;;7.70;99.90;;;;;;5053634;28;20037;-75
2024/02/01 11:02:30;;;;;;;31.00;5.05;;;7.70;99.90;;;;;;5035413;28;20040;-75
2024/02/01 11:05:00;;;;;;;30.17;5.28;;;7.80;99.90;;;;;;5035644;28;20396;-73
2024/02/01 11:07:28;;;;;;;29.35;6.15;;;7.80;99.90;;;;;;5019432;28;20424;-73
2024/02/01 11:09:53;;;;;;;22.70;4.70;;;7.80;99.90;;;;;;5035542;28;20041;-73
2024/02/01 11:12:24;;;;;;;25.45;5.07;;;7.80;99.90;;;;;;5019256;28;20132;-74
2024/02/01 11:14:51;;;;;;;18.33;4.95;;;7.80;99.90;;;;;;5035346;28;20037;-74
2024/02/01 11:17:23;;;;;;;31.25;5.22;;;7.80;99.90;;;;;;5035290;28;20041;-73
2024/02/01 11:19:51;;;;;;;37.20;4.63;;;7.80;99.90;;;;;;5035325;28;20144;-73
2024/02/01 11:22:18;;;;;;;26.08;5.47;;;7.90;99.90;;;;;;5053505;28;20048;-73
2024/02/01 11:24:44;;;;;;;25.65;5.05;;;7.90;99.90;;;;;;5034683;28;20547;-74
2024/02/01 11:27:19;;;;;;;29.73;4.60;;;8.00;99.90;;;;;;5018443;28;20075;-73
2024/02/01 11:29:51;;;;;;;30.50;5.55;;;8.00;99.90;;;;;;5034565;28;20099;-74
2024/02/01 11:32:19;;;;;;;25.90;4.80;;;8.00;99.90;;;;;;5034910;28;20459;-74
2024/02/01 11:34:59;;;;;;;31.20;6.18;;;8.10;99.90;;;;;;5034245;28;20048;-73
2024/02/01 11:37:24;;;;;;;21.23;5.00;;;8.10;99.90;;;;;;5034123;28;20040;-74
2024/02/01 11:39:52;;;;;;;24.42;5.85;;;8.00;99.90;;;;;;5034432;28;20757;-75
2024/02/01 11:42:21;;;;;;;33.00;6.15;;;8.10;99.90;;;;;;5034516;28;20032;-74
2024/02/01 11:44:48;;;;;;;22.63;5.15;;;8.10;99.90;;;;;;5034270;28;20039;-75
2024/02/01 11:47:14;;;;;;;29.67;5.38;;;8.10;99.90;;;;;;5034516;28;20127;-75
2024/02/01 11:49:41;;;;;;;26.95;4.72;;;8.20;99.90;;;;;;5035116;28;20456;-75
2024/02/01 11:52:13;;;;;;;32.25;6.88;;;8.20;99.90;;;;;;5034896;28;20102;-74
2024/02/01 11:54:52;;;;;;;20.92;3.90;;;8.20;99.90;;;;;;5035101;28;20091;-74
2024/02/01 11:57:22;;;;;;;21.27;4.93;;;8.20;99.90;;;;;;5052818;28;20077;-75
2024/02/01 11:59:48;;;;;;;24.70;4.40;;;8.20;99.90;;;;;;5034555;28;20124;-75
2024/02/01 12:02:19;;;;;;;20.15;5.25;;;8.20;99.90;;;;;;5034329;28;20032;-74
2024/02/01 12:04:47;;;;;;;28.15;5.85;;;8.30;99.90;;;;;;5023542;28;20064;-74
2024/02/01 12:07:14;;;;;;;31.40;5.25;;;8.30;99.90;;;;;;5024471;28;20037;-74
2024/02/01 12:09:45;;;;;;;26.17;5.57;;;8.30;99.90;;;;;;5025166;28;20042;-75
2024/02/01 12:12:19;;;;;;;24.27;4.85;;;8.30;99.90;;;;;;5017486;28;20045;-74
2024/02/01 12:14:44;;;;;;;22.58;4.60;;;8.30;99.90;;;;;;5031391;28;20081;-74
2024/02/01 12:17:15;;;;;;;22.58;4.93;;;8.40;99.90;;;;;;4998711;28;20423;-75
2024/02/01 12:19:40;;;;;;;28.50;5.10;;;8.30;99.90;;;;;;5032119;28;20095;-75
2024/02/01 12:22:07;;;;;;;27.52;6.15;;;8.30;99.90;;;;;;5014927;28;20116;-75
2024/02/01 12:24:36;;;;;;;26.58;5.70;;;8.30;99.90;;;;;;5032423;28;20037;-75
2024/02/01 12:27:03;;;;;;;26.08;3.95;;;8.30;99.90;;;;;;5014698;28;20041;-75
2024/02/01 12:29:29;;;;;;;26.35;4.85;;;8.30;99.90;;;;;;5014297;28;20080;-74
2024/02/01 12:31:55;;;;;;;18.35;3.83;;;8.30;99.90;;;;;;5032233;28;20041;-74
2024/02/01 12:34:23;;;;;;;31.08;8.25;;;8.30;99.90;;;;;;5014168;28;20044;-75
2024/02/01 12:36:49;;;;;;;24.77;4.82;;;8.30;99.90;;;;;;5014499;28;20049;-74
2024/02/01 12:39:18;;;;;;;16.55;3.13;;;8.40;99.90;;;;;;5013996;28;20501;-74
2024/02/01 12:41:45;;;;;;;17.45;3.65;;;8.40;99.90;;;;;;5025927;28;20116;-75
2024/02/01 12:44:13;;;;;;;24.77;5.38;;;8.40;99.90;;;;;;5034123;28;20033;-74
2024/02/01 12:46:45;;;;;;;22.02;4.20;;;8.40;99.90;;;;;;5033979;28;20124;-74
2024/02/01 12:49:12;;;;;;;23.17;4.15;;;8.40;99.90;;;;;;5033697;28;20033;-74
2024/02/01 12:51:42;;;;;;;16.35;3.75;;;8.40;99.90;;;;;;5051896;28;20051;-74
2024/02/01 12:54:09;;;;;;;22.00;3.92;;;8.40;99.90;;;;;;5033784;28;20098;-74
2024/02/01 12:56:38;;;;;;;25.17;4.75;;;8.40;99.90;;;;;;5033744;28;20040;-75
2024/02/01 12:59:04;;;;;;;23.13;4.60;;;8.40;99.90;;;;;;5017014;28;20056;-75
2024/02/01 13:01:33;;;;;;;19.42;4.72;;;8.40;99.90;;;;;;5051519;28;20083;-74
2024/02/01 13:04:02;;;;;;;21.48;4.82;;;8.40;99.90;;;;;;5051731;28;20079;-74
2024/02/01 13:06:27;;;;;;;15.65;3.85;;;8.40;99.90;;;;;;5016778;28;20421;-74
2024/02/01 13:08:53;;;;;;;18.67;4.07;;;8.40;99.90;;;;;;5033269;28;20083;-74
2024/02/01 13:11:25;;;;;;;19.15;3.75;;;8.50;99.90;;;;;;5033012;28;20125;-74
2024/02/01 13:14:01;;;;;;;17.15;4.07;;;8.40;99.90;;;;;;5033517;28;20049;-75
2024/02/01 13:16:27;;;;;;;20.67;5.07;;;8.40;99.90;;;;;;5050734;28;20496;-74
2024/02/01 13:18:54;;;;;;;16.85;4.30;;;8.40;99.90;;;;;;5033075;28;20039;-74
2024/02/01 13:21:23;;;;;;;17.60;4.20;;;8.40;99.90;;;;;;5047242;28;20128;-73
2024/02/01 13:23:49;;;;;;;18.70;3.47;;;8.40;99.90;;;;;;5051410;28;20040;-74
2024/02/01 13:26:14;;;;;;;20.00;3.45;;;8.40;99.90;;;;;;5034362;28;20041;-76
2024/02/01 13:28:43;;;;;;;19.10;4.75;;;8.40;99.90;;;;;;5037819;28;20071;-76
2024/02/01 13:31:09;;;;;;;18.27;4.43;;;8.40;99.90;;;;;;5037462;28;20500;-76
2024/02/01 13:33:38;;;;;;;26.38;4.97;;;8.40;99.90;;;;;;5055607;28;20086;-76
2024/02/01 13:36:08;;;;;;;21.58;4.03;;;8.40;99.90;;;;;;5020868;28;20580;-76
2024/02/01 13:38:34;;;;;;;23.83;6.20;;;8.30;99.90;;;;;;5037431;28;20401;-76
2024/02/01 13:41:00;;;;;;;19.10;3.55;;;8.30;99.90;;;;;;5037518;28;20033;-76
2024/02/01 13:43:26;;;;;;;25.33;4.13;;;8.30;99.90;;;;;;5064477;28;20134;-76
2024/02/01 13:45:51;;;;;;;21.83;6.78;;;8.40;99.90;;;;;;5051387;28;20500;-76
2024/02/01 13:48:18;;;;;;;21.33;4.45;;;8.40;99.90;;;;;;5055021;28;20146;-77
2024/02/01 13:50:43;;;;;;;19.58;4.07;;;8.40;99.90;;;;;;5057275;28;20043;-78
2024/02/01 13:53:17;;;;;;;23.65;4.40;;;8.40;99.90;;;;;;5058682;28;20039;-78
2024/02/01 13:55:43;;;;;;;25.20;4.60;;;8.30;99.90;;;;;;5059204;28;20040;-78
2024/02/01 13:58:09;;;;;;;23.58;4.20;;;8.30;99.90;;;;;;5059085;28;20045;-78